Jacky L O'neal — WDG3892 — position and weather

sailwx.info

Track history (hours):
 
Tides and Currents Weather Stations Pressure Air Temp Water Temp Dewpoint Dewpoint Depression Visibility Wind Speed Wind Dir Waves Ship Positions

Jacky L O'neal

Owner: American Commercial Lines LLC, Jeffersonville, IN. More information available from US FCC via Universal Licensing System and Coast Guard Vessel Documentation Center.

Last reported at 2017-Aug-24 03:16 UTC. Time now 2017-Aug-24 08:58 UTC.
Position N 31°46' W 091°22'.

Length 55 m; draft 3.4 m.

Type: Towing. MMSI: 367530760.

Date/timePositionNaut miles runAvg speedWind from/ knotsBaromVisibWave heightAir tempDewpointWater temp
2017-Aug-24 03:16N 31°46' W 091°22'6 7.2
2017-Aug-24 02:28N 31°51' W 091°19'8 7.1
2017-Aug-24 01:20N 31°57' W 091°12'3 7.1
2017-Aug-24 00:54N 31°59' W 091°09'3 6.4
2017-Aug-24 00:30N 31°59' W 091°06'4 8.4
2017-Aug-23 23:59N 32°03' W 091°03'4 8.2
2017-Aug-23 23:30N 32°06' W 091°06'2 3.5
2017-Aug-23 23:00N 32°08' W 091°06'4 7.4
2017-Aug-23 22:30N 32°07' W 091°01'4 8.1
2017-Aug-23 22:00N 32°11' W 090°60'4 8.5
2017-Aug-23 21:30N 32°15' W 090°59'4 8.3
2017-Aug-23 21:00N 32°18' W 090°55'3 5.6
2017-Aug-23 20:30N 32°21' W 090°56'4 7.2
2017-Aug-23 20:00N 32°21' W 091°00'4 7.5
2017-Aug-23 19:30N 32°25' W 091°00'4 8.3
2017-Aug-23 19:00N 32°27' W 091°05'4 7.7
2017-Aug-23 18:30N 32°30' W 091°07'4 8.1
2017-Aug-23 18:00N 32°34' W 091°06'4 8.1
2017-Aug-23 17:28N 32°38' W 091°09'  
Track history (hours):
 
Tides and Currents Weather Stations Pressure Air Temp Water Temp Dewpoint Dewpoint Depression Visibility Wind Speed Wind Dir Waves Ship Positions

Jacky L O'neal

Owner: American Commercial Lines LLC, Jeffersonville, IN. More information available from US FCC via Universal Licensing System and Coast Guard Vessel Documentation Center.

Last reported at 2017-Aug-24 03:16 UTC. Time now 2017-Aug-24 08:58 UTC.
Position N 31°46' W 091°22'.

Length 55 m; draft 3.4 m.

Type: Towing. MMSI: 367530760.

Date/timePositionNaut miles runAvg speedWind from/ knotsBaromVisibWave heightAir tempDewpointWater temp
2017-Aug-24 03:16N 31°46' W 091°22'6 7.2
2017-Aug-24 02:28N 31°51' W 091°19'8 7.1
2017-Aug-24 01:20N 31°57' W 091°12'3 7.1
2017-Aug-24 00:54N 31°59' W 091°09'3 6.4
2017-Aug-24 00:30N 31°59' W 091°06'4 8.4
2017-Aug-23 23:59N 32°03' W 091°03'4 8.2
2017-Aug-23 23:30N 32°06' W 091°06'2 3.5
2017-Aug-23 23:00N 32°08' W 091°06'4 7.4
2017-Aug-23 22:30N 32°07' W 091°01'4 8.1
2017-Aug-23 22:00N 32°11' W 090°60'4 8.5
2017-Aug-23 21:30N 32°15' W 090°59'4 8.3
2017-Aug-23 21:00N 32°18' W 090°55'3 5.6
2017-Aug-23 20:30N 32°21' W 090°56'4 7.2
2017-Aug-23 20:00N 32°21' W 091°00'4 7.5
2017-Aug-23 19:30N 32°25' W 091°00'4 8.3
2017-Aug-23 19:00N 32°27' W 091°05'4 7.7
2017-Aug-23 18:30N 32°30' W 091°07'4 8.1
2017-Aug-23 18:00N 32°34' W 091°06'4 8.1
2017-Aug-23 17:28N 32°38' W 091°09'  

Dump ship's entire track history